Hlavní strana
METAR-TAF:

METAR-TAF

Letiště :

Laghouat, Alžírsko

zeměpisná šířka: 33-46N, zeměpisná délka: 002-56E, výška: 765 m

Aktuální stav počasí

Zpráva byla vytvořena před 41 minutami, v 21:00 UTC
Východoseverovýchodní vítr 12 kt
Teplota 10°C
Vlhkost vzduchu 66%
Tlak 1021 hPa
Viditelnost: 8000 m

METAR: DAUL 282100Z 07012KT 8000 NSC 10/04 Q1021

Čas: 22:41 (21:41 UTC)

Předpověď počasí

Zpráva byla vytvořena před 1 hodinou a 41 minutami, v 20:00 UTC
Předpověď platná od 28 v 21 UTC do 01 v 06 UTC
Východní vítr 12 kt
Viditelnost: 6000 m
Skoro jasno ve výšce 3300 ft

TAF: DAUL 282000Z 2821/0106 09012KT 6000 FEW033

Stav a předpovědi počasí z více než 4 000 letišť (zprávy METAR a TAF).

Červené a žluté tečky na mapě představují dostupné meteorologické stanice.

Když kurzor umístíte na tečku, zobrazí se název stanice.

Pak kliknutím zobrazíte stav a předpověď počasí.

Chcete-li změnit mapu, kliknutím na zelené tlačítko se znaménkem +mapu přiblížíte, kliknutím na zelené tlačítko se znaménkem – mapu oddálíte a kliknutím na zelené šipky přejdete na sousední mapy.


METAR-TAF: